createdAt,value
2019-03-31T00:00:32.233Z,95818.00
2019-03-31T00:03:03.482Z,95819.00
2019-03-31T00:05:37.297Z,95815.00
2019-03-31T00:08:07.878Z,95817.00
2019-03-31T00:10:41.391Z,95818.00
2019-03-31T00:13:12.693Z,95821.00
2019-03-31T00:15:43.969Z,95816.00
2019-03-31T00:18:15.181Z,95816.00
2019-03-31T00:20:46.428Z,95819.00
2019-03-31T00:23:17.718Z,95812.00
2019-03-31T00:25:51.591Z,95808.00
2019-03-31T00:28:22.991Z,95814.00
2019-03-31T00:30:55.118Z,95815.00
2019-03-31T00:33:26.367Z,95816.00
2019-03-31T00:35:57.614Z,95806.00
2019-03-31T00:38:28.929Z,95811.00
2019-03-31T00:41:00.172Z,95806.00
2019-03-31T00:43:31.559Z,95805.00
2019-03-31T00:46:02.871Z,95807.00
2019-03-31T00:48:34.092Z,95806.00
2019-03-31T00:51:05.332Z,95816.00
2019-03-31T00:53:36.580Z,95810.00
2019-03-31T00:56:07.788Z,95812.00
2019-03-31T00:58:40.234Z,95809.00
2019-03-31T01:01:36.883Z,95812.00
2019-03-31T01:04:08.543Z,95802.00
2019-03-31T01:06:40.800Z,95806.00
2019-03-31T01:09:29.985Z,95812.00
2019-03-31T01:12:02.411Z,95808.00
2019-03-31T01:14:34.399Z,95809.00
2019-03-31T01:17:08.676Z,95807.00
2019-03-31T01:19:41.572Z,95797.00
2019-03-31T01:22:12.854Z,95806.00
2019-03-31T01:24:44.134Z,95797.00
2019-03-31T01:27:15.348Z,95810.00
2019-03-31T01:29:46.585Z,95800.00
2019-03-31T01:32:18.060Z,95793.00
2019-03-31T01:34:49.678Z,95794.00
2019-03-31T01:37:21.792Z,95795.00
2019-03-31T01:39:53.492Z,95793.00
2019-03-31T01:42:24.854Z,95803.00
2019-03-31T01:44:56.087Z,95795.00
2019-03-31T01:47:27.333Z,95789.00
2019-03-31T01:49:59.019Z,95786.00
2019-03-31T01:52:30.223Z,95791.00
2019-03-31T01:55:03.683Z,95794.00
2019-03-31T01:57:34.964Z,95789.00
2019-03-31T02:00:10.836Z,95788.00
2019-03-31T02:02:42.127Z,95785.00
2019-03-31T02:05:13.374Z,95789.00
2019-03-31T02:07:44.597Z,95788.00
2019-03-31T02:10:16.075Z,95794.00
2019-03-31T02:12:47.291Z,95787.00
2019-03-31T02:15:18.587Z,95789.00
2019-03-31T02:17:49.798Z,95775.00
2019-03-31T02:20:21.093Z,95785.00
2019-03-31T02:22:52.392Z,95774.00
2019-03-31T02:25:23.640Z,95778.00
2019-03-31T02:27:54.919Z,95779.00
2019-03-31T02:30:26.236Z,95782.00
2019-03-31T02:32:57.481Z,95780.00
2019-03-31T02:35:28.706Z,95774.00
2019-03-31T02:37:59.925Z,95774.00
2019-03-31T02:40:31.153Z,95772.00
2019-03-31T02:43:02.452Z,95764.00
2019-03-31T02:45:33.670Z,95770.00
2019-03-31T02:48:05.028Z,95775.00
2019-03-31T02:50:52.601Z,95773.00
2019-03-31T02:53:24.342Z,95767.00
2019-03-31T02:55:58.429Z,95755.00
2019-03-31T02:58:30.360Z,95761.00
2019-03-31T03:01:02.419Z,95760.00
2019-03-31T03:03:37.522Z,95758.00
2019-03-31T03:06:12.800Z,95752.00
2019-03-31T03:08:47.361Z,95752.00
2019-03-31T03:11:21.093Z,95753.00
2019-03-31T03:13:53.559Z,95752.00
2019-03-31T03:16:25.240Z,95752.00
2019-03-31T03:18:56.807Z,95746.00
2019-03-31T03:21:28.187Z,95760.00
2019-03-31T03:23:59.440Z,95762.00
2019-03-31T03:26:30.733Z,95752.00
2019-03-31T03:29:02.134Z,95757.00
2019-03-31T03:31:33.473Z,95747.00
2019-03-31T03:34:04.870Z,95753.00
2019-03-31T03:36:36.091Z,95743.00
2019-03-31T03:39:09.280Z,95744.00
2019-03-31T03:41:40.483Z,95738.00
2019-03-31T03:44:11.751Z,95738.00
2019-03-31T03:46:42.993Z,95750.00
2019-03-31T03:49:14.478Z,95752.00
2019-03-31T03:51:45.859Z,95735.00
2019-03-31T03:54:17.107Z,95741.00
2019-03-31T03:56:48.353Z,95741.00
2019-03-31T03:59:19.748Z,95740.00
2019-03-31T04:01:54.178Z,95740.00
2019-03-31T04:04:25.436Z,95739.00
2019-03-31T04:06:56.708Z,95746.00
2019-03-31T04:09:28.043Z,95733.00
2019-03-31T04:11:59.333Z,95741.00
2019-03-31T04:14:30.557Z,95744.00
2019-03-31T04:17:01.829Z,95739.00
2019-03-31T04:19:33.097Z,95751.00
2019-03-31T04:22:04.314Z,95753.00
2019-03-31T04:24:35.567Z,95745.00
2019-03-31T04:27:06.837Z,95749.00
2019-03-31T04:29:38.035Z,95747.00
2019-03-31T04:32:09.289Z,95746.00
2019-03-31T04:34:40.532Z,95747.00
2019-03-31T04:37:14.057Z,95743.00
2019-03-31T04:39:45.259Z,95750.00
2019-03-31T04:42:16.504Z,95743.00
2019-03-31T04:44:47.741Z,95758.00
2019-03-31T04:47:19.034Z,95753.00
2019-03-31T04:49:51.533Z,95749.00
2019-03-31T04:52:24.618Z,95750.00
2019-03-31T04:54:55.847Z,95753.00
2019-03-31T04:57:27.113Z,95749.00
2019-03-31T04:59:58.384Z,95750.00
2019-03-31T05:02:29.603Z,95753.00
2019-03-31T05:05:03.043Z,95756.00
2019-03-31T05:07:34.366Z,95751.00
2019-03-31T05:10:05.959Z,95748.00
2019-03-31T05:12:37.196Z,95753.00
2019-03-31T05:15:08.910Z,95757.00
2019-03-31T05:17:40.169Z,95751.00
2019-03-31T05:20:11.581Z,95757.00
2019-03-31T05:22:43.923Z,95767.00
2019-03-31T05:25:15.177Z,95760.00
2019-03-31T05:27:46.450Z,95764.00
2019-03-31T05:30:17.700Z,95764.00
2019-03-31T05:32:48.940Z,95761.00
2019-03-31T05:35:20.209Z,95756.00
2019-03-31T05:37:51.650Z,95771.00
2019-03-31T05:40:23.171Z,95763.00
2019-03-31T05:42:54.459Z,95758.00
2019-03-31T05:45:26.400Z,95767.00
2019-03-31T05:47:57.662Z,95765.00
2019-03-31T05:50:32.270Z,95758.00
2019-03-31T05:53:03.655Z,95770.00
2019-03-31T05:55:35.261Z,95772.00
2019-03-31T05:58:06.488Z,95769.00
2019-03-31T06:00:46.781Z,95774.00
2019-03-31T06:03:18.023Z,95774.00
2019-03-31T06:05:49.647Z,95769.00
2019-03-31T06:08:21.064Z,95784.00
2019-03-31T06:10:52.521Z,95779.00
2019-03-31T06:13:23.788Z,95779.00
2019-03-31T06:15:55.108Z,95771.00
2019-03-31T06:18:26.328Z,95775.00
2019-03-31T06:20:57.593Z,95786.00
2019-03-31T06:23:30.259Z,95784.00
2019-03-31T06:26:01.705Z,95785.00
2019-03-31T06:28:35.785Z,95782.00
2019-03-31T06:31:06.306Z,95784.00
2019-03-31T06:33:37.696Z,95784.00
2019-03-31T06:36:08.992Z,95790.00
2019-03-31T06:38:41.212Z,95781.00
2019-03-31T06:41:12.743Z,95794.00
2019-03-31T06:43:44.114Z,95786.00
2019-03-31T06:46:18.233Z,95788.00
2019-03-31T06:48:49.446Z,95785.00
2019-03-31T06:51:20.668Z,95779.00
2019-03-31T06:53:51.979Z,95789.00
2019-03-31T06:56:23.352Z,95786.00
2019-03-31T06:58:55.034Z,95786.00
2019-03-31T07:01:27.372Z,95786.00
2019-03-31T07:03:58.643Z,95791.00
2019-03-31T07:06:29.875Z,95783.00
2019-03-31T07:09:01.137Z,95793.00
2019-03-31T07:11:32.664Z,95786.00
2019-03-31T07:14:05.066Z,95784.00
2019-03-31T07:16:42.499Z,95784.00
2019-03-31T07:19:13.884Z,95794.00
2019-03-31T07:21:47.369Z,95787.00
2019-03-31T07:24:27.522Z,95782.00
2019-03-31T07:27:19.187Z,95787.00
2019-03-31T07:30:09.616Z,95777.00
2019-03-31T07:32:41.471Z,95777.00
2019-03-31T07:35:18.627Z,95784.00
2019-03-31T07:37:47.925Z,95783.00
2019-03-31T07:40:21.952Z,95775.00
2019-03-31T07:42:53.214Z,95775.00
2019-03-31T07:45:24.647Z,95775.00
2019-03-31T07:47:55.955Z,95774.00
2019-03-31T07:50:28.354Z,95780.00
2019-03-31T07:53:01.115Z,95775.00
2019-03-31T07:55:32.360Z,95777.00
2019-03-31T07:58:03.659Z,95783.00
2019-03-31T08:00:38.007Z,95782.00
2019-03-31T08:03:09.290Z,95775.00
2019-03-31T08:05:40.840Z,95775.00
2019-03-31T08:08:12.388Z,95785.00
2019-03-31T08:10:43.658Z,95785.00
2019-03-31T08:13:14.946Z,95778.00
2019-03-31T08:15:46.217Z,95777.00
2019-03-31T08:18:17.539Z,95769.00
2019-03-31T08:20:51.416Z,95773.00
2019-03-31T08:23:22.738Z,95771.00
2019-03-31T08:25:54.386Z,95779.00
2019-03-31T08:28:27.715Z,95774.00
2019-03-31T08:30:59.030Z,95769.00
2019-03-31T08:33:30.306Z,95780.00
2019-03-31T08:36:01.733Z,95777.00
2019-03-31T08:38:34.022Z,95776.00
2019-03-31T08:41:05.312Z,95769.00
2019-03-31T08:43:37.129Z,95774.00
2019-03-31T08:46:08.419Z,95772.00
2019-03-31T08:48:39.787Z,95770.00
2019-03-31T08:51:11.033Z,95765.00
2019-03-31T08:53:42.386Z,95766.00
2019-03-31T08:56:13.735Z,95770.00
2019-03-31T08:58:48.126Z,95761.00
2019-03-31T09:01:20.895Z,95764.00
2019-03-31T09:03:52.152Z,95757.00
2019-03-31T09:06:23.427Z,95758.00
2019-03-31T09:08:54.713Z,95761.00
2019-03-31T09:11:26.023Z,95766.00
2019-03-31T09:13:57.372Z,95755.00
2019-03-31T09:16:28.615Z,95760.00
2019-03-31T09:19:00.176Z,95749.00
2019-03-31T09:21:31.503Z,95748.00
2019-03-31T09:24:02.879Z,95755.00
2019-03-31T09:26:34.127Z,95748.00
2019-03-31T09:29:05.465Z,95751.00
2019-03-31T09:31:36.699Z,95753.00
2019-03-31T09:34:07.946Z,95751.00
2019-03-31T09:36:39.215Z,95752.00
2019-03-31T09:39:11.487Z,95744.00
2019-03-31T09:41:42.973Z,95742.00
2019-03-31T09:44:14.176Z,95746.00
2019-03-31T09:46:45.491Z,95741.00
2019-03-31T09:49:16.737Z,95738.00
2019-03-31T09:51:48.090Z,95751.00
2019-03-31T09:54:19.403Z,95746.00
2019-03-31T09:56:50.827Z,95737.00
2019-03-31T09:59:22.236Z,95735.00
2019-03-31T10:01:53.651Z,95735.00
2019-03-31T10:04:24.921Z,95735.00
2019-03-31T10:06:56.785Z,95740.00
2019-03-31T10:09:28.662Z,95737.00
2019-03-31T10:12:00.312Z,95722.00
2019-03-31T10:14:31.601Z,95724.00
2019-03-31T10:17:03.009Z,95705.00
2019-03-31T10:19:34.238Z,95721.00
2019-03-31T10:22:05.489Z,95711.00
2019-03-31T10:24:36.756Z,95707.00
2019-03-31T10:27:08.104Z,95700.00
2019-03-31T10:29:39.343Z,95697.00
2019-03-31T10:32:12.236Z,95694.00
2019-03-31T10:34:43.612Z,95702.00
2019-03-31T10:37:14.900Z,95689.00
2019-03-31T10:39:46.136Z,95694.00
2019-03-31T10:42:17.407Z,95695.00
2019-03-31T10:44:48.677Z,95688.00
2019-03-31T10:47:19.949Z,95687.00
2019-03-31T10:49:51.227Z,95684.00
2019-03-31T10:52:22.529Z,95692.00
2019-03-31T10:54:54.124Z,95679.00
2019-03-31T10:57:25.525Z,95691.00
2019-03-31T10:59:57.931Z,95672.00
2019-03-31T11:02:29.358Z,95679.00
2019-03-31T11:05:03.588Z,95682.00
2019-03-31T11:07:36.900Z,95687.00
2019-03-31T11:10:08.918Z,95677.00
2019-03-31T11:12:41.545Z,95677.00
2019-03-31T11:15:13.507Z,95670.00
2019-03-31T11:17:45.800Z,95680.00
2019-03-31T11:20:17.283Z,95665.00
2019-03-31T11:22:59.424Z,95668.00
2019-03-31T11:25:30.795Z,95670.00
2019-03-31T11:28:02.149Z,95671.00
2019-03-31T11:30:34.580Z,95667.00
2019-03-31T11:33:07.667Z,95666.00
2019-03-31T11:35:58.066Z,95667.00
2019-03-31T11:38:29.482Z,95662.00
2019-03-31T11:41:02.155Z,95663.00
2019-03-31T11:43:33.508Z,95658.00
2019-03-31T11:46:04.914Z,95663.00
2019-03-31T11:48:36.254Z,95654.00
2019-03-31T11:51:07.775Z,95656.00
2019-03-31T11:53:39.219Z,95650.00
2019-03-31T11:56:10.592Z,95645.00
2019-03-31T11:58:42.055Z,95650.00
2019-03-31T12:01:13.477Z,95642.00
2019-03-31T12:03:44.929Z,95639.00
2019-03-31T12:06:16.355Z,95646.00
2019-03-31T12:08:54.913Z,95648.00
2019-03-31T12:11:32.294Z,95656.00
2019-03-31T12:14:03.567Z,95649.00
2019-03-31T12:16:36.928Z,95639.00
2019-03-31T12:19:08.258Z,95639.00
2019-03-31T12:21:39.521Z,95634.00
2019-03-31T12:24:10.796Z,95633.00
2019-03-31T12:26:42.107Z,95623.00
2019-03-31T12:29:13.646Z,95628.00
2019-03-31T12:31:45.317Z,95617.00
2019-03-31T12:34:16.564Z,95623.00
2019-03-31T12:36:48.034Z,95625.00
2019-03-31T12:39:19.279Z,95622.00
2019-03-31T12:41:50.611Z,95612.00
2019-03-31T12:44:24.977Z,95606.00
2019-03-31T12:46:56.295Z,95599.00
2019-03-31T12:49:27.799Z,95603.00
2019-03-31T12:51:59.131Z,95601.00
2019-03-31T12:54:30.421Z,95605.00
2019-03-31T12:57:01.878Z,95598.00
2019-03-31T12:59:33.265Z,95598.00
2019-03-31T13:02:04.519Z,95586.00
2019-03-31T13:04:35.824Z,95599.00
2019-03-31T13:07:07.364Z,95590.00
2019-03-31T13:09:38.642Z,95594.00
2019-03-31T13:12:09.947Z,95591.00
2019-03-31T13:14:41.249Z,95589.00
2019-03-31T13:17:12.559Z,95584.00
2019-03-31T13:19:46.225Z,95582.00
2019-03-31T13:22:17.521Z,95579.00
2019-03-31T13:24:49.548Z,95585.00
2019-03-31T13:27:20.984Z,95579.00
2019-03-31T13:29:52.358Z,95587.00
2019-03-31T13:32:23.731Z,95583.00
2019-03-31T13:34:55.142Z,95576.00
2019-03-31T13:37:26.722Z,95580.00
2019-03-31T13:39:57.989Z,95571.00
2019-03-31T13:42:29.263Z,95573.00
2019-03-31T13:45:00.675Z,95576.00
2019-03-31T13:47:31.931Z,95571.00
2019-03-31T13:50:03.078Z,95567.00
2019-03-31T13:52:34.355Z,95569.00
2019-03-31T13:55:07.134Z,95563.00
2019-03-31T13:57:40.187Z,95569.00
2019-03-31T14:00:13.050Z,95557.00
2019-03-31T14:02:44.513Z,95561.00
2019-03-31T14:05:16.103Z,95555.00
2019-03-31T14:07:47.393Z,95554.00
2019-03-31T14:10:20.803Z,95559.00
2019-03-31T14:12:52.163Z,95553.00
2019-03-31T14:15:23.501Z,95543.00
2019-03-31T14:17:54.799Z,95540.00
2019-03-31T14:20:26.114Z,95540.00
2019-03-31T14:22:57.361Z,95543.00
2019-03-31T14:25:28.749Z,95548.00
2019-03-31T14:28:03.832Z,95540.00
2019-03-31T14:30:35.072Z,95529.00
2019-03-31T14:33:06.390Z,95534.00
2019-03-31T14:35:38.217Z,95537.00
2019-03-31T14:38:09.860Z,95542.00
2019-03-31T14:40:41.154Z,95535.00
2019-03-31T14:43:12.494Z,95532.00
2019-03-31T14:45:43.861Z,95532.00
2019-03-31T14:48:15.420Z,95538.00
2019-03-31T14:50:46.685Z,95544.00
2019-03-31T14:53:18.019Z,95531.00
2019-03-31T14:55:49.376Z,95536.00
2019-03-31T14:58:20.757Z,95533.00
2019-03-31T15:00:52.047Z,95532.00
2019-03-31T15:03:23.535Z,95535.00
2019-03-31T15:05:54.769Z,95531.00
2019-03-31T15:08:26.039Z,95537.00
2019-03-31T15:10:57.449Z,95530.00
2019-03-31T15:13:28.738Z,95528.00
2019-03-31T15:16:01.928Z,95530.00
2019-03-31T15:18:33.214Z,95529.00
2019-03-31T15:21:04.584Z,95525.00
2019-03-31T15:23:36.151Z,95521.00
2019-03-31T15:26:07.429Z,95525.00
2019-03-31T15:28:39.744Z,95518.00
2019-03-31T15:31:11.203Z,95516.00
2019-03-31T15:33:42.482Z,95523.00
2019-03-31T15:36:13.943Z,95527.00
2019-03-31T15:38:48.401Z,95524.00
2019-03-31T15:41:21.405Z,95526.00
2019-03-31T15:43:52.879Z,95524.00
2019-03-31T15:46:24.814Z,95528.00
2019-03-31T15:48:56.203Z,95531.00
2019-03-31T15:51:27.475Z,95526.00
2019-03-31T15:53:58.735Z,95534.00
2019-03-31T15:56:30.086Z,95534.00
2019-03-31T15:59:01.333Z,95531.00
2019-03-31T16:01:32.635Z,95529.00
2019-03-31T16:04:03.946Z,95524.00
2019-03-31T16:06:35.275Z,95529.00
2019-03-31T16:09:22.315Z,95527.00
2019-03-31T16:11:53.528Z,95529.00
2019-03-31T16:14:17.013Z,95526.00
2019-03-31T16:16:47.692Z,95533.00
2019-03-31T16:19:18.986Z,95530.00
2019-03-31T16:21:49.491Z,95533.00
2019-03-31T16:24:33.834Z,95540.00
2019-03-31T16:27:04.322Z,95526.00
2019-03-31T16:29:35.462Z,95533.00
2019-03-31T16:32:06.160Z,95539.00
2019-03-31T16:34:36.707Z,95532.00
2019-03-31T16:37:07.198Z,95537.00
2019-03-31T16:39:39.252Z,95539.00
2019-03-31T16:42:09.808Z,95541.00
2019-03-31T16:44:40.435Z,95530.00
2019-03-31T16:47:12.838Z,95537.00
2019-03-31T16:49:43.374Z,95535.00
2019-03-31T16:52:14.006Z,95533.00
2019-03-31T16:54:45.042Z,95542.00
2019-03-31T16:57:15.639Z,95537.00
2019-03-31T16:59:46.532Z,95530.00
2019-03-31T17:02:18.019Z,95533.00
2019-03-31T17:04:49.337Z,95544.00
2019-03-31T17:07:21.106Z,95550.00
2019-03-31T17:09:52.129Z,95534.00
2019-03-31T17:12:22.732Z,95544.00
2019-03-31T17:14:54.984Z,95537.00
2019-03-31T17:17:25.802Z,95531.00
2019-03-31T17:19:56.459Z,95533.00
2019-03-31T17:22:27.264Z,95534.00
2019-03-31T17:25:00.408Z,95535.00
2019-03-31T17:27:31.245Z,95547.00
2019-03-31T17:30:01.842Z,95538.00
2019-03-31T17:32:32.907Z,95540.00
2019-03-31T17:35:03.508Z,95546.00
2019-03-31T17:37:34.199Z,95543.00
2019-03-31T17:40:07.213Z,95547.00
2019-03-31T17:42:38.259Z,95548.00
2019-03-31T17:45:09.944Z,95547.00
2019-03-31T17:47:41.259Z,95548.00
2019-03-31T17:50:12.276Z,95548.00
2019-03-31T17:52:45.116Z,95551.00
2019-03-31T17:55:15.761Z,95559.00
2019-03-31T17:57:47.876Z,95554.00
2019-03-31T18:00:18.412Z,95557.00
2019-03-31T18:02:49.021Z,95560.00
2019-03-31T18:05:19.904Z,95548.00
2019-03-31T18:07:52.938Z,95549.00
2019-03-31T18:10:26.361Z,95554.00
2019-03-31T18:12:56.960Z,95551.00
2019-03-31T18:15:29.009Z,95561.00
2019-03-31T18:18:00.686Z,95561.00
2019-03-31T18:20:31.251Z,95562.00
2019-03-31T18:23:03.183Z,95570.00
2019-03-31T18:25:35.055Z,95571.00
2019-03-31T18:28:06.107Z,95570.00
2019-03-31T18:30:36.426Z,95575.00
2019-03-31T18:33:07.140Z,95579.00
2019-03-31T18:35:37.959Z,95574.00
2019-03-31T18:38:08.691Z,95576.00
2019-03-31T18:40:41.401Z,95583.00
2019-03-31T18:43:13.688Z,95587.00
2019-03-31T18:45:45.512Z,95586.00
2019-03-31T18:48:18.193Z,95587.00
2019-03-31T18:50:54.033Z,95587.00
2019-03-31T18:53:42.468Z,95601.00
2019-03-31T18:56:47.432Z,95584.00
2019-03-31T18:59:43.468Z,95592.00
2019-03-31T19:02:46.992Z,95596.00
2019-03-31T19:05:45.907Z,95593.00
2019-03-31T19:08:35.952Z,95595.00
2019-03-31T19:11:30.205Z,95604.00
2019-03-31T19:14:22.866Z,95596.00
2019-03-31T19:17:03.601Z,95601.00
2019-03-31T19:19:59.935Z,95590.00
2019-03-31T19:23:06.711Z,95593.00
2019-03-31T19:25:55.331Z,95603.00
2019-03-31T19:28:36.677Z,95593.00
2019-03-31T19:31:18.548Z,95592.00
2019-03-31T19:34:10.612Z,95595.00
2019-03-31T19:37:08.321Z,95596.00
2019-03-31T19:40:07.335Z,95592.00
2019-03-31T19:42:59.768Z,95593.00
2019-03-31T19:45:58.402Z,95604.00
2019-03-31T19:49:08.004Z,95599.00
2019-03-31T19:51:57.342Z,95591.00
2019-03-31T19:54:50.828Z,95593.00
2019-03-31T19:57:44.690Z,95596.00
2019-03-31T20:00:44.998Z,95598.00
2019-03-31T20:03:54.297Z,95598.00
2019-03-31T20:06:49.462Z,95599.00
2019-03-31T20:09:31.392Z,95597.00
2019-03-31T20:12:15.684Z,95597.00
2019-03-31T20:15:14.318Z,95602.00
2019-03-31T20:18:03.963Z,95615.00
2019-03-31T20:20:47.565Z,95603.00
2019-03-31T20:23:35.770Z,95610.00
2019-03-31T20:26:27.655Z,95607.00
2019-03-31T20:29:17.050Z,95613.00
2019-03-31T20:32:18.377Z,95606.00
2019-03-31T20:35:10.667Z,95605.00
2019-03-31T20:37:50.640Z,95605.00
2019-03-31T20:40:51.942Z,95612.00
2019-03-31T20:43:47.222Z,95606.00
2019-03-31T20:46:17.718Z,95602.00
2019-03-31T20:48:48.190Z,95605.00
2019-03-31T20:51:18.606Z,95604.00
2019-03-31T20:53:49.162Z,95604.00
2019-03-31T20:56:19.610Z,95598.00
2019-03-31T20:58:50.192Z,95610.00
2019-03-31T21:01:20.730Z,95607.00
2019-03-31T21:03:51.219Z,95613.00
2019-03-31T21:06:21.680Z,95605.00
2019-03-31T21:08:52.361Z,95613.00
2019-03-31T21:11:22.829Z,95608.00
2019-03-31T21:13:56.839Z,95625.00
2019-03-31T21:16:25.752Z,95625.00
2019-03-31T21:18:57.206Z,95629.00
2019-03-31T21:21:27.622Z,95625.00
2019-03-31T21:23:58.102Z,95629.00
2019-03-31T21:26:29.794Z,95644.00
2019-03-31T21:29:00.237Z,95627.00
2019-03-31T21:31:30.678Z,95628.00
2019-03-31T21:34:01.334Z,95630.00
2019-03-31T21:36:31.893Z,95632.00
2019-03-31T21:39:05.883Z,95624.00
2019-03-31T21:41:36.392Z,95634.00
2019-03-31T21:44:07.000Z,95643.00
2019-03-31T21:46:37.501Z,95634.00
2019-03-31T21:49:07.969Z,95633.00
2019-03-31T21:51:38.446Z,95628.00
2019-03-31T21:54:08.942Z,95639.00
2019-03-31T21:56:40.554Z,95643.00
2019-03-31T21:59:11.162Z,95649.00
2019-03-31T22:01:41.810Z,95643.00
2019-03-31T22:04:12.436Z,95650.00
2019-03-31T22:06:42.920Z,95646.00
2019-03-31T22:09:14.016Z,95642.00
2019-03-31T22:11:44.565Z,95646.00
2019-03-31T22:14:14.995Z,95644.00
2019-03-31T22:16:45.571Z,95642.00
2019-03-31T22:19:16.104Z,95653.00
2019-03-31T22:21:46.638Z,95643.00
2019-03-31T22:24:17.482Z,95640.00
2019-03-31T22:26:47.891Z,95634.00
2019-03-31T22:29:18.347Z,95637.00
2019-03-31T22:31:48.775Z,95639.00
2019-03-31T22:34:19.239Z,95634.00
2019-03-31T22:36:49.653Z,95632.00
2019-03-31T22:39:20.137Z,95632.00
2019-03-31T22:41:50.545Z,95634.00
2019-03-31T22:44:20.976Z,95628.00
2019-03-31T22:46:56.722Z,95628.00
2019-03-31T22:49:27.119Z,95627.00
2019-03-31T22:51:57.544Z,95631.00
2019-03-31T22:54:28.012Z,95636.00
2019-03-31T22:56:58.417Z,95628.00
2019-03-31T22:59:28.853Z,95628.00
2019-03-31T23:01:59.291Z,95630.00
2019-03-31T23:04:30.155Z,95633.00
2019-03-31T23:07:00.601Z,95635.00
2019-03-31T23:09:34.311Z,95625.00
2019-03-31T23:12:03.315Z,95627.00
2019-03-31T23:14:33.764Z,95628.00
2019-03-31T23:17:04.328Z,95631.00
2019-03-31T23:19:34.792Z,95626.00
2019-03-31T23:22:06.893Z,95629.00
2019-03-31T23:24:37.337Z,95619.00
2019-03-31T23:27:07.743Z,95630.00
2019-03-31T23:29:38.142Z,95629.00
2019-03-31T23:32:08.561Z,95620.00
2019-03-31T23:34:38.981Z,95627.00
2019-03-31T23:37:09.421Z,95628.00
2019-03-31T23:39:39.869Z,95625.00
2019-03-31T23:42:10.341Z,95626.00
2019-03-31T23:44:40.835Z,95625.00
2019-03-31T23:47:11.495Z,95631.00
2019-03-31T23:49:41.979Z,95627.00
2019-03-31T23:52:12.631Z,95628.00
2019-03-31T23:54:43.161Z,95628.00
2019-03-31T23:57:13.693Z,95613.00
2019-03-31T23:59:45.591Z,95622.00
